Terminal Aerodrome Forecast
Issued by NWS

Home | Current Version | Previous Version | Graphics & Text | Print | Product List | Glossary On
Versions: 1 2 3 4 5 6 7 8 9 10 11 12 13
000
FTUS43 KBIS 191127
TAFJMS
TAF
KJMS 191127Z 1912/2012 12010KT P6SM SCT100 BKN130
     FM191800 13011KT P6SM FEW120 SCT200
     FM200200 14007KT P6SM BKN250
     FM200600 16008KT P6SM -RA BKN090 OVC110=

USA.gov is the U.S. government's official web portal to all federal, state and local government web resources and services.